sensor_id;sensor_type;location;lat;lon;timestamp;temperature;humidity
42949;DHT22;28587;46.794;23.594;2022-09-01T00:00:15;28.00;52.00
42949;DHT22;28587;46.794;23.594;2022-09-01T00:05:20;28.00;51.90
42949;DHT22;28587;46.794;23.594;2022-09-01T00:10:22;28.00;51.70
42949;DHT22;28587;46.794;23.594;2022-09-01T00:15:23;28.00;51.70
42949;DHT22;28587;46.794;23.594;2022-09-01T00:20:23;28.00;51.80
42949;DHT22;28587;46.794;23.594;2022-09-01T00:25:25;28.00;51.80
42949;DHT22;28587;46.794;23.594;2022-09-01T00:30:27;28.00;51.80
42949;DHT22;28587;46.794;23.594;2022-09-01T00:35:28;28.00;51.80
42949;DHT22;28587;46.794;23.594;2022-09-01T00:40:29;28.00;51.90
42949;DHT22;28587;46.794;23.594;2022-09-01T00:45:31;28.00;51.80
42949;DHT22;28587;46.794;23.594;2022-09-01T00:50:33;28.00;51.90
42949;DHT22;28587;46.794;23.594;2022-09-01T00:55:35;28.00;51.80
42949;DHT22;28587;46.794;23.594;2022-09-01T01:00:38;28.00;51.70
42949;DHT22;28587;46.794;23.594;2022-09-01T01:05:45;28.00;51.80
42949;DHT22;28587;46.794;23.594;2022-09-01T01:10:48;27.90;51.80
42949;DHT22;28587;46.794;23.594;2022-09-01T01:15:49;28.00;51.90
42949;DHT22;28587;46.794;23.594;2022-09-01T01:21:05;28.00;51.80
42949;DHT22;28587;46.794;23.594;2022-09-01T01:26:25;28.00;51.80
42949;DHT22;28587;46.794;23.594;2022-09-01T01:31:26;28.00;51.80
42949;DHT22;28587;46.794;23.594;2022-09-01T01:36:33;27.90;51.70
42949;DHT22;28587;46.794;23.594;2022-09-01T01:41:38;27.90;51.70
42949;DHT22;28587;46.794;23.594;2022-09-01T01:46:48;28.00;51.80
42949;DHT22;28587;46.794;23.594;2022-09-01T01:51:53;27.90;51.80
42949;DHT22;28587;46.794;23.594;2022-09-01T01:56:59;27.90;51.70
42949;DHT22;28587;46.794;23.594;2022-09-01T02:02:01;27.90;51.80
42949;DHT22;28587;46.794;23.594;2022-09-01T02:07:03;28.00;51.80
42949;DHT22;28587;46.794;23.594;2022-09-01T02:12:07;27.90;51.70
42949;DHT22;28587;46.794;23.594;2022-09-01T02:17:09;27.90;51.60
42949;DHT22;28587;46.794;23.594;2022-09-01T02:22:10;27.90;51.60
42949;DHT22;28587;46.794;23.594;2022-09-01T02:27:11;27.90;51.70
42949;DHT22;28587;46.794;23.594;2022-09-01T02:32:15;27.90;51.60
42949;DHT22;28587;46.794;23.594;2022-09-01T02:37:22;27.90;51.60
42949;DHT22;28587;46.794;23.594;2022-09-01T02:42:25;27.90;51.60
42949;DHT22;28587;46.794;23.594;2022-09-01T02:47:29;27.90;51.50
42949;DHT22;28587;46.794;23.594;2022-09-01T02:52:30;27.90;51.50
42949;DHT22;28587;46.794;23.594;2022-09-01T02:57:36;27.90;51.70
42949;DHT22;28587;46.794;23.594;2022-09-01T03:02:37;27.90;51.60
42949;DHT22;28587;46.794;23.594;2022-09-01T03:07:38;27.90;51.70
42949;DHT22;28587;46.794;23.594;2022-09-01T03:12:42;27.90;51.60
42949;DHT22;28587;46.794;23.594;2022-09-01T03:17:43;27.90;51.70
42949;DHT22;28587;46.794;23.594;2022-09-01T03:22:46;27.90;51.60
42949;DHT22;28587;46.794;23.594;2022-09-01T03:27:48;27.90;51.60
42949;DHT22;28587;46.794;23.594;2022-09-01T03:32:49;27.90;51.60
42949;DHT22;28587;46.794;23.594;2022-09-01T03:37:50;27.90;51.40
42949;DHT22;28587;46.794;23.594;2022-09-01T03:42:53;27.90;51.50
42949;DHT22;28587;46.794;23.594;2022-09-01T03:47:56;27.90;51.30
42949;DHT22;28587;46.794;23.594;2022-09-01T03:52:58;27.90;51.40
42949;DHT22;28587;46.794;23.594;2022-09-01T03:58:05;27.90;51.40
42949;DHT22;28587;46.794;23.594;2022-09-01T04:03:08;27.80;51.00
42949;DHT22;28587;46.794;23.594;2022-09-01T04:08:11;27.90;50.90
42949;DHT22;28587;46.794;23.594;2022-09-01T04:13:13;27.80;50.70
42949;DHT22;28587;46.794;23.594;2022-09-01T04:18:14;27.80;50.90
42949;DHT22;28587;46.794;23.594;2022-09-01T04:23:29;27.80;50.80
42949;DHT22;28587;46.794;23.594;2022-09-01T04:28:36;27.80;50.90
42949;DHT22;28587;46.794;23.594;2022-09-01T04:33:38;27.80;51.00
42949;DHT22;28587;46.794;23.594;2022-09-01T04:38:40;27.80;51.00
42949;DHT22;28587;46.794;23.594;2022-09-01T04:43:45;27.80;51.10
42949;DHT22;28587;46.794;23.594;2022-09-01T04:48:51;27.80;51.20
42949;DHT22;28587;46.794;23.594;2022-09-01T04:53:55;27.80;51.40
42949;DHT22;28587;46.794;23.594;2022-09-01T04:58:57;27.80;51.50
42949;DHT22;28587;46.794;23.594;2022-09-01T05:03:58;27.80;51.50
42949;DHT22;28587;46.794;23.594;2022-09-01T05:09:12;27.80;51.30
42949;DHT22;28587;46.794;23.594;2022-09-01T05:14:23;27.80;51.30
42949;DHT22;28587;46.794;23.594;2022-09-01T05:19:26;27.80;51.30
42949;DHT22;28587;46.794;23.594;2022-09-01T05:24:31;27.80;51.40
42949;DHT22;28587;46.794;23.594;2022-09-01T05:29:37;27.80;51.60
42949;DHT22;28587;46.794;23.594;2022-09-01T05:34:41;27.80;51.60
42949;DHT22;28587;46.794;23.594;2022-09-01T05:39:43;27.80;51.50
42949;DHT22;28587;46.794;23.594;2022-09-01T05:44:45;27.80;51.50
42949;DHT22;28587;46.794;23.594;2022-09-01T05:49:49;27.90;51.50
42949;DHT22;28587;46.794;23.594;2022-09-01T05:54:51;27.90;51.80
42949;DHT22;28587;46.794;23.594;2022-09-01T05:59:52;27.80;51.60
42949;DHT22;28587;46.794;23.594;2022-09-01T06:04:55;27.90;51.50
42949;DHT22;28587;46.794;23.594;2022-09-01T06:10:01;27.90;51.60
42949;DHT22;28587;46.794;23.594;2022-09-01T06:15:02;27.90;51.50
42949;DHT22;28587;46.794;23.594;2022-09-01T06:20:05;27.90;51.50
42949;DHT22;28587;46.794;23.594;2022-09-01T06:25:11;27.90;51.50
42949;DHT22;28587;46.794;23.594;2022-09-01T06:30:17;27.90;51.60
42949;DHT22;28587;46.794;23.594;2022-09-01T06:35:26;27.90;51.60
42949;DHT22;28587;46.794;23.594;2022-09-01T06:40:30;27.90;51.40
42949;DHT22;28587;46.794;23.594;2022-09-01T06:45:32;27.90;51.40
42949;DHT22;28587;46.794;23.594;2022-09-01T06:50:33;27.90;51.40
42949;DHT22;28587;46.794;23.594;2022-09-01T06:55:38;27.90;51.40
42949;DHT22;28587;46.794;23.594;2022-09-01T07:00:39;27.90;51.50
42949;DHT22;28587;46.794;23.594;2022-09-01T07:05:46;28.00;52.20
42949;DHT22;28587;46.794;23.594;2022-09-01T07:10:49;28.00;51.70
42949;DHT22;28587;46.794;23.594;2022-09-01T07:15:52;28.00;51.60
42949;DHT22;28587;46.794;23.594;2022-09-01T07:20:54;28.00;51.60
42949;DHT22;28587;46.794;23.594;2022-09-01T07:25:55;28.00;51.50
42949;DHT22;28587;46.794;23.594;2022-09-01T07:31:07;28.00;51.60
42949;DHT22;28587;46.794;23.594;2022-09-01T07:36:09;28.00;51.80
42949;DHT22;28587;46.794;23.594;2022-09-01T07:41:11;28.00;51.40
42949;DHT22;28587;46.794;23.594;2022-09-01T07:46:30;28.00;51.60
42949;DHT22;28587;46.794;23.594;2022-09-01T07:51:34;28.00;51.90
42949;DHT22;28587;46.794;23.594;2022-09-01T07:56:36;28.00;51.50
42949;DHT22;28587;46.794;23.594;2022-09-01T08:01:37;28.00;52.10
42949;DHT22;28587;46.794;23.594;2022-09-01T08:06:38;28.10;52.00
42949;DHT22;28587;46.794;23.594;2022-09-01T08:11:41;28.10;51.80
42949;DHT22;28587;46.794;23.594;2022-09-01T08:16:42;28.10;52.00
42949;DHT22;28587;46.794;23.594;2022-09-01T08:21:44;28.10;52.40
42949;DHT22;28587;46.794;23.594;2022-09-01T08:27:06;28.10;52.20
42949;DHT22;28587;46.794;23.594;2022-09-01T08:32:08;28.10;52.50
42949;DHT22;28587;46.794;23.594;2022-09-01T08:37:10;28.10;52.00
42949;DHT22;28587;46.794;23.594;2022-09-01T08:47:18;28.10;52.00
42949;DHT22;28587;46.794;23.594;2022-09-01T09:19:18;28.10;51.40
42949;DHT22;28587;46.794;23.594;2022-09-01T09:29:22;28.10;52.10
42949;DHT22;28587;46.794;23.594;2022-09-01T09:34:31;28.10;51.60
42949;DHT22;28587;46.794;23.594;2022-09-01T09:39:32;28.10;52.40
42949;DHT22;28587;46.794;23.594;2022-09-01T09:44:39;28.10;52.20
42949;DHT22;28587;46.794;23.594;2022-09-01T09:49:43;28.10;52.00
42949;DHT22;28587;46.794;23.594;2022-09-01T09:55:05;28.10;51.80
42949;DHT22;28587;46.794;23.594;2022-09-01T10:00:18;28.10;51.60
42949;DHT22;28587;46.794;23.594;2022-09-01T10:05:47;28.10;51.60
42949;DHT22;28587;46.794;23.594;2022-09-01T10:10:52;28.10;51.40
42949;DHT22;28587;46.794;23.594;2022-09-01T10:15:56;28.10;51.20
42949;DHT22;28587;46.794;23.594;2022-09-01T10:21:23;28.10;51.30
42949;DHT22;28587;46.794;23.594;2022-09-01T10:31:28;28.10;51.20
42949;DHT22;28587;46.794;23.594;2022-09-01T10:36:30;28.10;51.10
42949;DHT22;28587;46.794;23.594;2022-09-01T10:41:56;28.10;51.00
42949;DHT22;28587;46.794;23.594;2022-09-01T10:47:02;28.10;50.90
42949;DHT22;28587;46.794;23.594;2022-09-01T10:52:08;28.10;50.80
42949;DHT22;28587;46.794;23.594;2022-09-01T10:57:25;28.10;50.80
42949;DHT22;28587;46.794;23.594;2022-09-01T11:02:29;28.10;50.60
42949;DHT22;28587;46.794;23.594;2022-09-01T11:07:32;28.10;50.40
42949;DHT22;28587;46.794;23.594;2022-09-01T11:18:28;28.10;50.80
42949;DHT22;28587;46.794;23.594;2022-09-01T11:23:30;28.10;51.00
42949;DHT22;28587;46.794;23.594;2022-09-01T11:28:36;28.10;51.20
42949;DHT22;28587;46.794;23.594;2022-09-01T11:38:49;28.10;51.60
42949;DHT22;28587;46.794;23.594;2022-09-01T11:43:54;28.10;51.70
42949;DHT22;28587;46.794;23.594;2022-09-01T11:49:01;28.10;51.90
42949;DHT22;28587;46.794;23.594;2022-09-01T11:54:03;28.10;52.00
42949;DHT22;28587;46.794;23.594;2022-09-01T11:59:04;28.10;51.70
42949;DHT22;28587;46.794;23.594;2022-09-01T12:04:30;28.10;51.70
42949;DHT22;28587;46.794;23.594;2022-09-01T12:09:42;28.10;51.80
42949;DHT22;28587;46.794;23.594;2022-09-01T12:14:57;28.10;52.10
42949;DHT22;28587;46.794;23.594;2022-09-01T12:20:20;28.10;52.00
42949;DHT22;28587;46.794;23.594;2022-09-01T12:25:25;28.10;51.80
42949;DHT22;28587;46.794;23.594;2022-09-01T12:30:26;28.10;51.90
42949;DHT22;28587;46.794;23.594;2022-09-01T12:35:27;28.10;51.60
42949;DHT22;28587;46.794;23.594;2022-09-01T12:40:33;28.10;51.90
42949;DHT22;28587;46.794;23.594;2022-09-01T12:45:46;28.10;51.90
42949;DHT22;28587;46.794;23.594;2022-09-01T12:50:47;28.10;51.70
42949;DHT22;28587;46.794;23.594;2022-09-01T12:56:03;28.10;51.70
42949;DHT22;28587;46.794;23.594;2022-09-01T13:01:06;28.00;51.90
42949;DHT22;28587;46.794;23.594;2022-09-01T13:06:14;28.10;51.30
42949;DHT22;28587;46.794;23.594;2022-09-01T13:11:20;28.10;51.60
42949;DHT22;28587;46.794;23.594;2022-09-01T13:16:21;28.00;51.70
42949;DHT22;28587;46.794;23.594;2022-09-01T13:21:22;28.00;51.50
42949;DHT22;28587;46.794;23.594;2022-09-01T13:26:23;28.00;51.70
42949;DHT22;28587;46.794;23.594;2022-09-01T13:31:25;28.10;52.10
42949;DHT22;28587;46.794;23.594;2022-09-01T13:36:29;28.10;52.30
42949;DHT22;28587;46.794;23.594;2022-09-01T13:41:30;28.00;51.90
42949;DHT22;28587;46.794;23.594;2022-09-01T13:46:31;28.10;52.30
42949;DHT22;28587;46.794;23.594;2022-09-01T13:51:32;28.10;52.80
42949;DHT22;28587;46.794;23.594;2022-09-01T13:56:34;28.10;52.60
42949;DHT22;28587;46.794;23.594;2022-09-01T14:01:37;28.10;52.50
42949;DHT22;28587;46.794;23.594;2022-09-01T14:06:42;28.10;52.60
42949;DHT22;28587;46.794;23.594;2022-09-01T14:11:43;28.10;53.50
42949;DHT22;28587;46.794;23.594;2022-09-01T14:16:44;28.10;52.40
42949;DHT22;28587;46.794;23.594;2022-09-01T14:21:45;28.10;52.90
42949;DHT22;28587;46.794;23.594;2022-09-01T14:26:47;28.10;53.60
42949;DHT22;28587;46.794;23.594;2022-09-01T14:31:48;28.10;53.80
42949;DHT22;28587;46.794;23.594;2022-09-01T14:36:52;28.10;53.80
42949;DHT22;28587;46.794;23.594;2022-09-01T14:41:56;28.10;53.70
42949;DHT22;28587;46.794;23.594;2022-09-01T14:46:56;28.10;53.10
42949;DHT22;28587;46.794;23.594;2022-09-01T14:51:58;28.10;53.10
42949;DHT22;28587;46.794;23.594;2022-09-01T14:57:00;28.00;52.60
42949;DHT22;28587;46.794;23.594;2022-09-01T15:02:01;28.00;52.70
42949;DHT22;28587;46.794;23.594;2022-09-01T15:07:02;28.00;52.80
42949;DHT22;28587;46.794;23.594;2022-09-01T15:12:06;27.90;52.70
42949;DHT22;28587;46.794;23.594;2022-09-01T15:17:09;28.00;52.90
42949;DHT22;28587;46.794;23.594;2022-09-01T15:22:10;28.00;52.80
42949;DHT22;28587;46.794;23.594;2022-09-01T15:27:14;28.00;52.70
42949;DHT22;28587;46.794;23.594;2022-09-01T15:32:14;28.00;52.60
42949;DHT22;28587;46.794;23.594;2022-09-01T15:37:16;28.00;52.60
42949;DHT22;28587;46.794;23.594;2022-09-01T15:42:17;28.00;53.00
42949;DHT22;28587;46.794;23.594;2022-09-01T15:47:18;28.00;52.90
42949;DHT22;28587;46.794;23.594;2022-09-01T15:52:19;28.00;53.00
42949;DHT22;28587;46.794;23.594;2022-09-01T15:57:20;28.10;53.00
42949;DHT22;28587;46.794;23.594;2022-09-01T16:02:21;28.10;52.40
42949;DHT22;28587;46.794;23.594;2022-09-01T16:07:25;28.00;52.30
42949;DHT22;28587;46.794;23.594;2022-09-01T16:12:27;28.00;52.30
42949;DHT22;28587;46.794;23.594;2022-09-01T16:22:57;28.00;52.30
42949;DHT22;28587;46.794;23.594;2022-09-01T16:28:17;28.00;52.90
42949;DHT22;28587;46.794;23.594;2022-09-01T16:33:21;28.00;52.50
42949;DHT22;28587;46.794;23.594;2022-09-01T16:38:42;28.00;52.60
42949;DHT22;28587;46.794;23.594;2022-09-01T16:49:30;28.10;52.40
42949;DHT22;28587;46.794;23.594;2022-09-01T16:55:06;28.00;52.90
42949;DHT22;28587;46.794;23.594;2022-09-01T17:00:14;28.00;52.40
42949;DHT22;28587;46.794;23.594;2022-09-01T17:05:29;28.00;52.40
42949;DHT22;28587;46.794;23.594;2022-09-01T17:10:47;28.00;52.80
42949;DHT22;28587;46.794;23.594;2022-09-01T17:21:34;28.00;52.50
42949;DHT22;28587;46.794;23.594;2022-09-01T17:26:38;28.00;52.10
42949;DHT22;28587;46.794;23.594;2022-09-01T17:31:45;28.00;52.10
42949;DHT22;28587;46.794;23.594;2022-09-01T17:53:15;27.90;54.20
42949;DHT22;28587;46.794;23.594;2022-09-01T17:58:28;27.90;52.70
42949;DHT22;28587;46.794;23.594;2022-09-01T18:08:47;27.90;53.50
42949;DHT22;28587;46.794;23.594;2022-09-01T18:13:58;27.90;53.40
42949;DHT22;28587;46.794;23.594;2022-09-01T18:19:04;27.90;52.80
42949;DHT22;28587;46.794;23.594;2022-09-01T18:29:30;27.90;52.70
42949;DHT22;28587;46.794;23.594;2022-09-01T18:45:57;28.00;52.10
42949;DHT22;28587;46.794;23.594;2022-09-01T18:56:46;27.90;52.40
42949;DHT22;28587;46.794;23.594;2022-09-01T19:07:47;27.90;52.50
42949;DHT22;28587;46.794;23.594;2022-09-01T19:23:31;27.90;52.70
42949;DHT22;28587;46.794;23.594;2022-09-01T19:28:44;27.90;52.70
42949;DHT22;28587;46.794;23.594;2022-09-01T19:33:52;27.80;52.90
42949;DHT22;28587;46.794;23.594;2022-09-01T19:38:53;27.80;52.90
42949;DHT22;28587;46.794;23.594;2022-09-01T19:44:07;27.80;52.60
42949;DHT22;28587;46.794;23.594;2022-09-01T19:49:20;27.80;52.80
42949;DHT22;28587;46.794;23.594;2022-09-01T19:54:38;27.90;53.10
42949;DHT22;28587;46.794;23.594;2022-09-01T20:00:10;27.80;52.40
42949;DHT22;28587;46.794;23.594;2022-09-01T20:05:23;27.80;52.50
42949;DHT22;28587;46.794;23.594;2022-09-01T20:10:49;27.80;52.80
42949;DHT22;28587;46.794;23.594;2022-09-01T20:21:10;27.80;52.80
42949;DHT22;28587;46.794;23.594;2022-09-01T20:31:57;27.80;52.30
42949;DHT22;28587;46.794;23.594;2022-09-01T20:37:49;27.80;52.30
42949;DHT22;28587;46.794;23.594;2022-09-01T20:42:58;27.80;52.50
42949;DHT22;28587;46.794;23.594;2022-09-01T20:48:09;27.80;52.30
42949;DHT22;28587;46.794;23.594;2022-09-01T20:58:44;27.80;52.30
42949;DHT22;28587;46.794;23.594;2022-09-01T21:09:13;27.80;52.20
42949;DHT22;28587;46.794;23.594;2022-09-01T21:14:22;27.80;52.20
42949;DHT22;28587;46.794;23.594;2022-09-01T21:19:47;27.80;52.40
42949;DHT22;28587;46.794;23.594;2022-09-01T21:24:53;27.80;52.30
42949;DHT22;28587;46.794;23.594;2022-09-01T21:30:01;27.80;52.10
42949;DHT22;28587;46.794;23.594;2022-09-01T21:35:05;27.80;52.20
42949;DHT22;28587;46.794;23.594;2022-09-01T21:40:07;27.80;52.30
42949;DHT22;28587;46.794;23.594;2022-09-01T21:45:10;27.80;52.50
42949;DHT22;28587;46.794;23.594;2022-09-01T21:50:13;27.80;52.30
42949;DHT22;28587;46.794;23.594;2022-09-01T21:55:15;27.80;52.30
42949;DHT22;28587;46.794;23.594;2022-09-01T22:00:19;27.80;52.30
42949;DHT22;28587;46.794;23.594;2022-09-01T22:05:21;27.80;52.60
42949;DHT22;28587;46.794;23.594;2022-09-01T22:10:27;27.80;52.40
42949;DHT22;28587;46.794;23.594;2022-09-01T22:15:28;27.80;52.40
42949;DHT22;28587;46.794;23.594;2022-09-01T22:20:31;27.80;52.50
42949;DHT22;28587;46.794;23.594;2022-09-01T22:25:32;27.80;52.50
42949;DHT22;28587;46.794;23.594;2022-09-01T22:30:34;27.80;52.40
42949;DHT22;28587;46.794;23.594;2022-09-01T22:35:41;27.80;52.60
42949;DHT22;28587;46.794;23.594;2022-09-01T22:40:54;27.80;52.50
42949;DHT22;28587;46.794;23.594;2022-09-01T22:45:56;27.80;52.50
42949;DHT22;28587;46.794;23.594;2022-09-01T22:50:58;27.80;52.40
42949;DHT22;28587;46.794;23.594;2022-09-01T22:55:59;27.80;52.60
42949;DHT22;28587;46.794;23.594;2022-09-01T23:01:00;27.80;52.20
42949;DHT22;28587;46.794;23.594;2022-09-01T23:06:07;27.80;52.50
42949;DHT22;28587;46.794;23.594;2022-09-01T23:11:11;27.80;52.50
42949;DHT22;28587;46.794;23.594;2022-09-01T23:16:13;27.80;52.60
42949;DHT22;28587;46.794;23.594;2022-09-01T23:21:17;27.80;52.50
42949;DHT22;28587;46.794;23.594;2022-09-01T23:26:19;27.80;52.60
42949;DHT22;28587;46.794;23.594;2022-09-01T23:31:22;27.80;52.60
42949;DHT22;28587;46.794;23.594;2022-09-01T23:36:25;27.80;53.00
42949;DHT22;28587;46.794;23.594;2022-09-01T23:41:28;27.70;52.40
42949;DHT22;28587;46.794;23.594;2022-09-01T23:46:33;27.80;52.50
42949;DHT22;28587;46.794;23.594;2022-09-01T23:51:34;27.70;52.40
42949;DHT22;28587;46.794;23.594;2022-09-01T23:56:36;27.70;52.30
